sensor_id;sensor_type;location;lat;lon;timestamp;temperature;humidity
18240;DHT22;9244;50.828;4.718;2024-01-30T00:02:24;10.20;99.90
18240;DHT22;9244;50.828;4.718;2024-01-30T00:04:52;10.20;99.90
18240;DHT22;9244;50.828;4.718;2024-01-30T00:07:17;10.20;99.90
18240;DHT22;9244;50.828;4.718;2024-01-30T00:09:45;10.10;99.90
18240;DHT22;9244;50.828;4.718;2024-01-30T00:12:13;10.20;99.90
18240;DHT22;9244;50.828;4.718;2024-01-30T00:14:42;10.20;99.90
18240;DHT22;9244;50.828;4.718;2024-01-30T00:17:10;10.20;99.90
18240;DHT22;9244;50.828;4.718;2024-01-30T00:19:36;10.20;99.90
18240;DHT22;9244;50.828;4.718;2024-01-30T00:22:02;10.20;99.90
18240;DHT22;9244;50.828;4.718;2024-01-30T00:24:28;10.30;99.90
18240;DHT22;9244;50.828;4.718;2024-01-30T00:26:54;10.30;99.90
18240;DHT22;9244;50.828;4.718;2024-01-30T00:29:19;10.30;99.90
18240;DHT22;9244;50.828;4.718;2024-01-30T00:31:45;10.30;99.90
18240;DHT22;9244;50.828;4.718;2024-01-30T00:34:11;10.30;99.90
18240;DHT22;9244;50.828;4.718;2024-01-30T00:36:37;10.30;99.90
18240;DHT22;9244;50.828;4.718;2024-01-30T00:39:03;10.40;99.90
18240;DHT22;9244;50.828;4.718;2024-01-30T00:41:32;10.40;99.90
18240;DHT22;9244;50.828;4.718;2024-01-30T00:43:57;10.40;99.90
18240;DHT22;9244;50.828;4.718;2024-01-30T00:46:23;10.40;99.90
18240;DHT22;9244;50.828;4.718;2024-01-30T00:48:51;10.50;99.90
18240;DHT22;9244;50.828;4.718;2024-01-30T00:51:19;10.50;99.90
18240;DHT22;9244;50.828;4.718;2024-01-30T00:53:45;10.50;99.90
18240;DHT22;9244;50.828;4.718;2024-01-30T00:56:11;10.50;99.90
18240;DHT22;9244;50.828;4.718;2024-01-30T00:58:36;10.60;99.90
18240;DHT22;9244;50.828;4.718;2024-01-30T01:01:02;10.60;99.90
18240;DHT22;9244;50.828;4.718;2024-01-30T01:03:28;10.60;99.90
18240;DHT22;9244;50.828;4.718;2024-01-30T01:05:54;10.60;99.90
18240;DHT22;9244;50.828;4.718;2024-01-30T01:08:19;10.70;99.90
18240;DHT22;9244;50.828;4.718;2024-01-30T01:10:45;10.60;99.90
18240;DHT22;9244;50.828;4.718;2024-01-30T01:13:11;10.70;99.90
18240;DHT22;9244;50.828;4.718;2024-01-30T01:15:39;10.70;99.90
18240;DHT22;9244;50.828;4.718;2024-01-30T01:18:07;10.70;99.90
18240;DHT22;9244;50.828;4.718;2024-01-30T01:20:33;10.60;99.90
18240;DHT22;9244;50.828;4.718;2024-01-30T01:22:59;10.60;99.90
18240;DHT22;9244;50.828;4.718;2024-01-30T01:25:24;10.70;99.90
18240;DHT22;9244;50.828;4.718;2024-01-30T01:27:50;10.70;99.90
18240;DHT22;9244;50.828;4.718;2024-01-30T01:30:21;10.70;99.90
18240;DHT22;9244;50.828;4.718;2024-01-30T01:32:48;10.70;99.90
18240;DHT22;9244;50.828;4.718;2024-01-30T01:35:23;10.70;99.90
18240;DHT22;9244;50.828;4.718;2024-01-30T01:37:55;10.60;99.90
18240;DHT22;9244;50.828;4.718;2024-01-30T01:40:23;10.60;99.90
18240;DHT22;9244;50.828;4.718;2024-01-30T01:42:50;10.60;99.90
18240;DHT22;9244;50.828;4.718;2024-01-30T01:45:17;10.60;99.90
18240;DHT22;9244;50.828;4.718;2024-01-30T01:47:43;10.60;99.90
18240;DHT22;9244;50.828;4.718;2024-01-30T01:50:15;10.60;99.90
18240;DHT22;9244;50.828;4.718;2024-01-30T01:52:46;10.60;99.90
18240;DHT22;9244;50.828;4.718;2024-01-30T01:55:13;10.60;99.90
18240;DHT22;9244;50.828;4.718;2024-01-30T01:57:41;10.70;99.90
18240;DHT22;9244;50.828;4.718;2024-01-30T02:00:10;10.60;99.90
18240;DHT22;9244;50.828;4.718;2024-01-30T02:02:39;10.60;99.90
18240;DHT22;9244;50.828;4.718;2024-01-30T02:05:08;10.60;99.90
18240;DHT22;9244;50.828;4.718;2024-01-30T02:07:37;10.50;99.90
18240;DHT22;9244;50.828;4.718;2024-01-30T02:10:03;10.50;99.90
18240;DHT22;9244;50.828;4.718;2024-01-30T02:12:29;10.50;99.90
18240;DHT22;9244;50.828;4.718;2024-01-30T02:14:57;10.50;99.90
18240;DHT22;9244;50.828;4.718;2024-01-30T02:17:23;10.50;99.90
18240;DHT22;9244;50.828;4.718;2024-01-30T02:19:49;10.50;99.90
18240;DHT22;9244;50.828;4.718;2024-01-30T02:22:15;10.50;99.90
18240;DHT22;9244;50.828;4.718;2024-01-30T02:24:40;10.50;99.90
18240;DHT22;9244;50.828;4.718;2024-01-30T02:27:06;10.50;99.90
18240;DHT22;9244;50.828;4.718;2024-01-30T02:29:32;10.50;99.90
18240;DHT22;9244;50.828;4.718;2024-01-30T02:31:59;10.50;99.90
18240;DHT22;9244;50.828;4.718;2024-01-30T02:34:27;10.50;99.90
18240;DHT22;9244;50.828;4.718;2024-01-30T02:36:53;10.50;99.90
18240;DHT22;9244;50.828;4.718;2024-01-30T02:39:18;10.50;99.90
18240;DHT22;9244;50.828;4.718;2024-01-30T02:41:45;10.40;99.90
18240;DHT22;9244;50.828;4.718;2024-01-30T02:44:10;10.40;99.90
18240;DHT22;9244;50.828;4.718;2024-01-30T02:46:36;10.40;99.90
18240;DHT22;9244;50.828;4.718;2024-01-30T02:49:02;10.40;99.90
18240;DHT22;9244;50.828;4.718;2024-01-30T02:51:27;10.40;99.90
18240;DHT22;9244;50.828;4.718;2024-01-30T02:53:55;10.40;99.90
18240;DHT22;9244;50.828;4.718;2024-01-30T02:56:21;10.40;99.90
18240;DHT22;9244;50.828;4.718;2024-01-30T02:58:47;10.50;99.90
18240;DHT22;9244;50.828;4.718;2024-01-30T03:01:12;10.50;99.90
18240;DHT22;9244;50.828;4.718;2024-01-30T03:03:38;10.40;99.90
18240;DHT22;9244;50.828;4.718;2024-01-30T03:06:06;10.40;99.90
18240;DHT22;9244;50.828;4.718;2024-01-30T03:08:32;10.40;99.90
18240;DHT22;9244;50.828;4.718;2024-01-30T03:11:00;10.50;99.90
18240;DHT22;9244;50.828;4.718;2024-01-30T03:13:26;10.50;99.90
18240;DHT22;9244;50.828;4.718;2024-01-30T03:15:51;10.50;99.90
18240;DHT22;9244;50.828;4.718;2024-01-30T03:18:17;10.40;99.90
18240;DHT22;9244;50.828;4.718;2024-01-30T03:20:43;10.40;99.90
18240;DHT22;9244;50.828;4.718;2024-01-30T03:23:09;10.50;99.90
18240;DHT22;9244;50.828;4.718;2024-01-30T03:25:34;10.50;99.90
18240;DHT22;9244;50.828;4.718;2024-01-30T03:28:00;10.50;99.90
18240;DHT22;9244;50.828;4.718;2024-01-30T03:30:26;10.50;99.90
18240;DHT22;9244;50.828;4.718;2024-01-30T03:32:54;10.50;99.90
18240;DHT22;9244;50.828;4.718;2024-01-30T03:35:22;10.60;99.90
18240;DHT22;9244;50.828;4.718;2024-01-30T03:37:50;10.60;99.90
18240;DHT22;9244;50.828;4.718;2024-01-30T03:40:15;10.60;99.90
18240;DHT22;9244;50.828;4.718;2024-01-30T03:42:43;10.50;99.90
18240;DHT22;9244;50.828;4.718;2024-01-30T03:45:09;10.50;99.90
18240;DHT22;9244;50.828;4.718;2024-01-30T03:47:35;10.50;99.90
18240;DHT22;9244;50.828;4.718;2024-01-30T03:50:00;10.60;99.90
18240;DHT22;9244;50.828;4.718;2024-01-30T03:52:26;10.60;99.90
18240;DHT22;9244;50.828;4.718;2024-01-30T03:54:56;10.60;99.90
18240;DHT22;9244;50.828;4.718;2024-01-30T03:57:22;10.60;99.90
18240;DHT22;9244;50.828;4.718;2024-01-30T03:59:47;10.60;99.90
18240;DHT22;9244;50.828;4.718;2024-01-30T04:02:13;10.60;99.90
18240;DHT22;9244;50.828;4.718;2024-01-30T04:04:39;10.60;99.90
18240;DHT22;9244;50.828;4.718;2024-01-30T04:07:07;10.60;99.90
18240;DHT22;9244;50.828;4.718;2024-01-30T04:09:35;10.60;99.90
18240;DHT22;9244;50.828;4.718;2024-01-30T04:12:00;10.70;99.90
18240;DHT22;9244;50.828;4.718;2024-01-30T04:14:28;10.60;99.90
18240;DHT22;9244;50.828;4.718;2024-01-30T04:16:53;10.60;99.90
18240;DHT22;9244;50.828;4.718;2024-01-30T04:19:19;10.60;99.90
18240;DHT22;9244;50.828;4.718;2024-01-30T04:21:45;10.60;99.90
18240;DHT22;9244;50.828;4.718;2024-01-30T04:24:11;10.60;99.90
18240;DHT22;9244;50.828;4.718;2024-01-30T04:26:36;10.50;99.90
18240;DHT22;9244;50.828;4.718;2024-01-30T04:29:02;10.60;99.90
18240;DHT22;9244;50.828;4.718;2024-01-30T04:31:28;10.60;99.90
18240;DHT22;9244;50.828;4.718;2024-01-30T04:33:53;10.50;99.90
18240;DHT22;9244;50.828;4.718;2024-01-30T04:36:22;10.50;99.90
18240;DHT22;9244;50.828;4.718;2024-01-30T04:38:47;10.50;99.90
18240;DHT22;9244;50.828;4.718;2024-01-30T04:41:15;10.50;99.90
18240;DHT22;9244;50.828;4.718;2024-01-30T04:43:43;10.50;99.90
18240;DHT22;9244;50.828;4.718;2024-01-30T04:46:09;10.50;99.90
18240;DHT22;9244;50.828;4.718;2024-01-30T04:48:35;10.50;99.90
18240;DHT22;9244;50.828;4.718;2024-01-30T04:51:00;10.50;99.90
18240;DHT22;9244;50.828;4.718;2024-01-30T04:53:30;10.50;99.90
18240;DHT22;9244;50.828;4.718;2024-01-30T04:55:56;10.50;99.90
18240;DHT22;9244;50.828;4.718;2024-01-30T04:58:22;10.50;99.90
18240;DHT22;9244;50.828;4.718;2024-01-30T05:00:47;10.50;99.90
18240;DHT22;9244;50.828;4.718;2024-01-30T05:03:17;10.50;99.90
18240;DHT22;9244;50.828;4.718;2024-01-30T05:05:43;10.50;99.90
18240;DHT22;9244;50.828;4.718;2024-01-30T05:08:11;10.50;99.90
18240;DHT22;9244;50.828;4.718;2024-01-30T05:10:36;10.40;99.90
18240;DHT22;9244;50.828;4.718;2024-01-30T05:13:04;10.40;99.90
18240;DHT22;9244;50.828;4.718;2024-01-30T05:15:33;10.40;99.90
18240;DHT22;9244;50.828;4.718;2024-01-30T05:17:58;10.40;99.90
18240;DHT22;9244;50.828;4.718;2024-01-30T05:20:24;10.40;99.90
18240;DHT22;9244;50.828;4.718;2024-01-30T05:22:53;10.40;99.90
18240;DHT22;9244;50.828;4.718;2024-01-30T05:25:21;10.40;99.90
18240;DHT22;9244;50.828;4.718;2024-01-30T05:27:47;10.40;99.90
18240;DHT22;9244;50.828;4.718;2024-01-30T05:30:13;10.40;99.90
18240;DHT22;9244;50.828;4.718;2024-01-30T05:32:41;10.40;99.90
18240;DHT22;9244;50.828;4.718;2024-01-30T05:35:07;10.40;99.90
18240;DHT22;9244;50.828;4.718;2024-01-30T05:37:35;10.40;99.90
18240;DHT22;9244;50.828;4.718;2024-01-30T05:40:03;10.40;99.90
18240;DHT22;9244;50.828;4.718;2024-01-30T05:42:29;10.40;99.90
18240;DHT22;9244;50.828;4.718;2024-01-30T05:44:55;10.40;99.90
18240;DHT22;9244;50.828;4.718;2024-01-30T05:47:21;10.40;99.90
18240;DHT22;9244;50.828;4.718;2024-01-30T05:49:46;10.40;99.90
18240;DHT22;9244;50.828;4.718;2024-01-30T05:52:12;10.40;99.90
18240;DHT22;9244;50.828;4.718;2024-01-30T05:54:38;10.40;99.90
18240;DHT22;9244;50.828;4.718;2024-01-30T05:57:04;10.40;99.90
18240;DHT22;9244;50.828;4.718;2024-01-30T05:59:30;10.30;99.90
18240;DHT22;9244;50.828;4.718;2024-01-30T06:01:55;10.30;99.90
18240;DHT22;9244;50.828;4.718;2024-01-30T06:04:21;10.30;99.90
18240;DHT22;9244;50.828;4.718;2024-01-30T06:06:46;10.30;99.90
18240;DHT22;9244;50.828;4.718;2024-01-30T06:09:14;10.30;99.90
18240;DHT22;9244;50.828;4.718;2024-01-30T06:11:40;10.30;99.90
18240;DHT22;9244;50.828;4.718;2024-01-30T06:14:06;10.30;99.90
18240;DHT22;9244;50.828;4.718;2024-01-30T06:16:31;10.30;99.90
18240;DHT22;9244;50.828;4.718;2024-01-30T06:18:59;10.30;99.90
18240;DHT22;9244;50.828;4.718;2024-01-30T06:21:25;10.40;99.90
18240;DHT22;9244;50.828;4.718;2024-01-30T06:23:51;10.40;99.90
18240;DHT22;9244;50.828;4.718;2024-01-30T06:26:18;10.40;99.90
18240;DHT22;9244;50.828;4.718;2024-01-30T06:28:44;10.40;99.90
18240;DHT22;9244;50.828;4.718;2024-01-30T06:31:10;10.40;99.90
18240;DHT22;9244;50.828;4.718;2024-01-30T06:33:35;10.40;99.90
18240;DHT22;9244;50.828;4.718;2024-01-30T06:36:01;10.40;99.90
18240;DHT22;9244;50.828;4.718;2024-01-30T06:38:29;10.40;99.90
18240;DHT22;9244;50.828;4.718;2024-01-30T06:40:57;10.40;99.90
18240;DHT22;9244;50.828;4.718;2024-01-30T06:43:22;10.40;99.90
18240;DHT22;9244;50.828;4.718;2024-01-30T06:45:48;10.40;99.90
18240;DHT22;9244;50.828;4.718;2024-01-30T06:48:17;10.40;99.90
18240;DHT22;9244;50.828;4.718;2024-01-30T06:50:42;10.30;99.90
18240;DHT22;9244;50.828;4.718;2024-01-30T06:53:08;10.40;99.90
18240;DHT22;9244;50.828;4.718;2024-01-30T06:55:36;10.40;99.90
18240;DHT22;9244;50.828;4.718;2024-01-30T06:58:02;10.30;99.90
18240;DHT22;9244;50.828;4.718;2024-01-30T07:00:28;10.40;99.90
18240;DHT22;9244;50.828;4.718;2024-01-30T07:02:53;10.40;99.90
18240;DHT22;9244;50.828;4.718;2024-01-30T07:05:19;10.40;99.90
18240;DHT22;9244;50.828;4.718;2024-01-30T07:07:44;10.40;99.90
18240;DHT22;9244;50.828;4.718;2024-01-30T07:10:10;10.40;99.90
18240;DHT22;9244;50.828;4.718;2024-01-30T07:12:36;10.40;99.90
18240;DHT22;9244;50.828;4.718;2024-01-30T07:15:01;10.40;99.90
18240;DHT22;9244;50.828;4.718;2024-01-30T07:17:28;10.40;99.90
18240;DHT22;9244;50.828;4.718;2024-01-30T07:19:54;10.40;99.90
18240;DHT22;9244;50.828;4.718;2024-01-30T07:22:22;10.40;99.90
18240;DHT22;9244;50.828;4.718;2024-01-30T07:24:47;10.30;99.90
18240;DHT22;9244;50.828;4.718;2024-01-30T07:27:14;10.30;99.90
18240;DHT22;9244;50.828;4.718;2024-01-30T07:29:42;10.40;99.90
18240;DHT22;9244;50.828;4.718;2024-01-30T07:32:10;10.40;99.90
18240;DHT22;9244;50.828;4.718;2024-01-30T07:34:36;10.30;99.90
18240;DHT22;9244;50.828;4.718;2024-01-30T07:37:02;10.30;99.90
18240;DHT22;9244;50.828;4.718;2024-01-30T07:39:28;10.30;99.90
18240;DHT22;9244;50.828;4.718;2024-01-30T07:41:54;10.30;99.90
18240;DHT22;9244;50.828;4.718;2024-01-30T07:44:20;10.40;99.90
18240;DHT22;9244;50.828;4.718;2024-01-30T07:46:46;10.40;99.90
18240;DHT22;9244;50.828;4.718;2024-01-30T07:49:12;10.40;99.90
18240;DHT22;9244;50.828;4.718;2024-01-30T07:51:39;10.40;99.90
18240;DHT22;9244;50.828;4.718;2024-01-30T07:54:12;10.40;99.90
18240;DHT22;9244;50.828;4.718;2024-01-30T07:56:40;10.40;99.90
18240;DHT22;9244;50.828;4.718;2024-01-30T07:59:12;10.50;99.90
18240;DHT22;9244;50.828;4.718;2024-01-30T08:01:40;10.60;99.90
18240;DHT22;9244;50.828;4.718;2024-01-30T08:04:08;10.70;99.90
18240;DHT22;9244;50.828;4.718;2024-01-30T08:06:36;10.70;99.90
18240;DHT22;9244;50.828;4.718;2024-01-30T08:09:04;10.80;99.90
18240;DHT22;9244;50.828;4.718;2024-01-30T08:11:30;10.80;99.90
18240;DHT22;9244;50.828;4.718;2024-01-30T08:13:59;10.80;99.90
18240;DHT22;9244;50.828;4.718;2024-01-30T08:16:24;10.80;99.90
18240;DHT22;9244;50.828;4.718;2024-01-30T08:18:50;10.80;99.90
18240;DHT22;9244;50.828;4.718;2024-01-30T08:21:19;10.80;99.90
18240;DHT22;9244;50.828;4.718;2024-01-30T08:23:44;10.80;99.90
18240;DHT22;9244;50.828;4.718;2024-01-30T08:26:10;10.80;99.90
18240;DHT22;9244;50.828;4.718;2024-01-30T08:28:36;10.90;99.90
18240;DHT22;9244;50.828;4.718;2024-01-30T08:31:04;10.80;99.90
18240;DHT22;9244;50.828;4.718;2024-01-30T08:33:29;10.90;99.90
18240;DHT22;9244;50.828;4.718;2024-01-30T08:35:55;10.90;99.90
18240;DHT22;9244;50.828;4.718;2024-01-30T08:38:20;10.90;99.90
18240;DHT22;9244;50.828;4.718;2024-01-30T08:40:46;11.00;99.90
18240;DHT22;9244;50.828;4.718;2024-01-30T08:43:12;11.00;99.90
18240;DHT22;9244;50.828;4.718;2024-01-30T08:45:40;11.00;99.90
18240;DHT22;9244;50.828;4.718;2024-01-30T08:48:06;11.00;99.90
18240;DHT22;9244;50.828;4.718;2024-01-30T08:50:33;11.00;99.90
18240;DHT22;9244;50.828;4.718;2024-01-30T08:52:59;11.00;99.90
18240;DHT22;9244;50.828;4.718;2024-01-30T08:55:24;11.00;99.90
18240;DHT22;9244;50.828;4.718;2024-01-30T08:57:50;11.00;99.90
18240;DHT22;9244;50.828;4.718;2024-01-30T09:00:17;11.00;99.90
18240;DHT22;9244;50.828;4.718;2024-01-30T09:02:43;11.00;99.90
18240;DHT22;9244;50.828;4.718;2024-01-30T09:05:09;11.10;99.90
18240;DHT22;9244;50.828;4.718;2024-01-30T09:07:37;11.20;99.90
18240;DHT22;9244;50.828;4.718;2024-01-30T09:10:03;11.30;99.90
18240;DHT22;9244;50.828;4.718;2024-01-30T09:12:29;11.30;99.90
18240;DHT22;9244;50.828;4.718;2024-01-30T09:14:54;11.30;99.90
18240;DHT22;9244;50.828;4.718;2024-01-30T09:17:20;11.40;99.90
18240;DHT22;9244;50.828;4.718;2024-01-30T09:19:46;11.40;99.90
18240;DHT22;9244;50.828;4.718;2024-01-30T09:22:14;11.40;99.90
18240;DHT22;9244;50.828;4.718;2024-01-30T09:24:40;11.50;99.90
18240;DHT22;9244;50.828;4.718;2024-01-30T09:27:06;11.50;99.90
18240;DHT22;9244;50.828;4.718;2024-01-30T09:29:34;11.50;99.90
18240;DHT22;9244;50.828;4.718;2024-01-30T09:32:04;11.40;99.90
18240;DHT22;9244;50.828;4.718;2024-01-30T09:34:30;11.40;99.90
18240;DHT22;9244;50.828;4.718;2024-01-30T09:36:56;11.40;99.90
18240;DHT22;9244;50.828;4.718;2024-01-30T09:39:24;11.40;99.90
18240;DHT22;9244;50.828;4.718;2024-01-30T09:42:00;11.40;99.90
18240;DHT22;9244;50.828;4.718;2024-01-30T09:44:29;11.40;99.90
18240;DHT22;9244;50.828;4.718;2024-01-30T09:46:56;11.40;99.90
18240;DHT22;9244;50.828;4.718;2024-01-30T09:49:30;11.30;99.90
18240;DHT22;9244;50.828;4.718;2024-01-30T09:51:56;11.40;99.90
18240;DHT22;9244;50.828;4.718;2024-01-30T09:54:23;11.30;99.90
18240;DHT22;9244;50.828;4.718;2024-01-30T09:56:49;11.30;99.90
18240;DHT22;9244;50.828;4.718;2024-01-30T09:59:17;11.40;99.90
18240;DHT22;9244;50.828;4.718;2024-01-30T10:01:45;11.30;99.90
18240;DHT22;9244;50.828;4.718;2024-01-30T10:04:11;11.30;99.90
18240;DHT22;9244;50.828;4.718;2024-01-30T10:06:40;11.30;99.90
18240;DHT22;9244;50.828;4.718;2024-01-30T10:09:05;11.30;99.90
18240;DHT22;9244;50.828;4.718;2024-01-30T10:11:34;11.30;99.90
18240;DHT22;9244;50.828;4.718;2024-01-30T10:14:00;11.30;99.90
18240;DHT22;9244;50.828;4.718;2024-01-30T10:16:26;11.40;99.90
18240;DHT22;9244;50.828;4.718;2024-01-30T10:18:51;11.30;99.90
18240;DHT22;9244;50.828;4.718;2024-01-30T10:21:17;11.30;99.90
18240;DHT22;9244;50.828;4.718;2024-01-30T10:23:46;11.30;99.90
18240;DHT22;9244;50.828;4.718;2024-01-30T10:26:12;11.30;99.90
18240;DHT22;9244;50.828;4.718;2024-01-30T10:28:43;11.30;99.90
18240;DHT22;9244;50.828;4.718;2024-01-30T10:31:08;11.30;99.90
18240;DHT22;9244;50.828;4.718;2024-01-30T10:33:36;11.30;99.90
18240;DHT22;9244;50.828;4.718;2024-01-30T10:36:05;11.30;99.90
18240;DHT22;9244;50.828;4.718;2024-01-30T10:38:32;11.20;99.90
18240;DHT22;9244;50.828;4.718;2024-01-30T10:41:00;11.30;99.90
18240;DHT22;9244;50.828;4.718;2024-01-30T10:43:35;11.40;99.90
18240;DHT22;9244;50.828;4.718;2024-01-30T10:46:14;11.50;99.90
18240;DHT22;9244;50.828;4.718;2024-01-30T10:48:43;11.50;99.90
18240;DHT22;9244;50.828;4.718;2024-01-30T10:51:14;11.60;99.90
18240;DHT22;9244;50.828;4.718;2024-01-30T10:53:41;11.80;99.90
18240;DHT22;9244;50.828;4.718;2024-01-30T10:56:10;11.90;99.90
18240;DHT22;9244;50.828;4.718;2024-01-30T10:58:37;11.90;99.90
18240;DHT22;9244;50.828;4.718;2024-01-30T11:01:06;12.00;99.90
18240;DHT22;9244;50.828;4.718;2024-01-30T11:03:35;11.90;99.90
18240;DHT22;9244;50.828;4.718;2024-01-30T11:06:02;11.80;99.90
18240;DHT22;9244;50.828;4.718;2024-01-30T11:08:32;11.70;99.90
18240;DHT22;9244;50.828;4.718;2024-01-30T11:11:00;11.50;99.90
18240;DHT22;9244;50.828;4.718;2024-01-30T11:13:30;11.40;99.90
18240;DHT22;9244;50.828;4.718;2024-01-30T11:16:00;11.40;99.90
18240;DHT22;9244;50.828;4.718;2024-01-30T11:18:26;11.40;99.90
18240;DHT22;9244;50.828;4.718;2024-01-30T11:20:59;11.30;99.90
18240;DHT22;9244;50.828;4.718;2024-01-30T11:23:26;11.40;99.90
18240;DHT22;9244;50.828;4.718;2024-01-30T11:25:53;11.40;99.90
18240;DHT22;9244;50.828;4.718;2024-01-30T11:28:19;11.50;99.90
18240;DHT22;9244;50.828;4.718;2024-01-30T11:30:46;11.40;99.90
18240;DHT22;9244;50.828;4.718;2024-01-30T11:33:14;11.40;99.90
18240;DHT22;9244;50.828;4.718;2024-01-30T11:35:44;11.50;99.90
18240;DHT22;9244;50.828;4.718;2024-01-30T11:38:11;11.50;99.90
18240;DHT22;9244;50.828;4.718;2024-01-30T11:40:39;11.40;99.90
18240;DHT22;9244;50.828;4.718;2024-01-30T11:43:09;11.40;99.90
18240;DHT22;9244;50.828;4.718;2024-01-30T11:45:35;11.30;99.90
18240;DHT22;9244;50.828;4.718;2024-01-30T11:48:02;11.30;99.90
18240;DHT22;9244;50.828;4.718;2024-01-30T11:50:31;11.20;99.90
18240;DHT22;9244;50.828;4.718;2024-01-30T11:52:59;11.20;99.90
18240;DHT22;9244;50.828;4.718;2024-01-30T11:55:31;11.20;99.90
18240;DHT22;9244;50.828;4.718;2024-01-30T11:57:57;11.40;99.90
18240;DHT22;9244;50.828;4.718;2024-01-30T12:00:24;11.40;99.90
18240;DHT22;9244;50.828;4.718;2024-01-30T12:02:54;11.60;99.90
18240;DHT22;9244;50.828;4.718;2024-01-30T12:05:23;11.80;99.90
18240;DHT22;9244;50.828;4.718;2024-01-30T12:07:52;12.00;99.90
18240;DHT22;9244;50.828;4.718;2024-01-30T12:10:20;12.00;99.90
18240;DHT22;9244;50.828;4.718;2024-01-30T12:12:47;11.90;99.90
18240;DHT22;9244;50.828;4.718;2024-01-30T12:15:14;11.70;99.90
18240;DHT22;9244;50.828;4.718;2024-01-30T12:17:41;11.80;99.90
18240;DHT22;9244;50.828;4.718;2024-01-30T12:20:08;11.90;99.90
18240;DHT22;9244;50.828;4.718;2024-01-30T12:22:37;11.70;99.90
18240;DHT22;9244;50.828;4.718;2024-01-30T12:25:20;11.50;99.90
18240;DHT22;9244;50.828;4.718;2024-01-30T12:27:54;11.50;99.90
18240;DHT22;9244;50.828;4.718;2024-01-30T12:30:20;11.50;99.90
18240;DHT22;9244;50.828;4.718;2024-01-30T12:32:47;11.40;99.90
18240;DHT22;9244;50.828;4.718;2024-01-30T12:35:19;11.30;99.90
18240;DHT22;9244;50.828;4.718;2024-01-30T12:37:45;11.10;99.90
18240;DHT22;9244;50.828;4.718;2024-01-30T12:40:13;11.00;99.90
18240;DHT22;9244;50.828;4.718;2024-01-30T12:42:43;11.10;99.90
18240;DHT22;9244;50.828;4.718;2024-01-30T12:45:11;11.10;99.90
18240;DHT22;9244;50.828;4.718;2024-01-30T12:47:37;11.20;99.90
18240;DHT22;9244;50.828;4.718;2024-01-30T12:50:03;11.20;99.90
18240;DHT22;9244;50.828;4.718;2024-01-30T12:52:29;11.70;99.90
18240;DHT22;9244;50.828;4.718;2024-01-30T12:54:57;12.00;99.90
18240;DHT22;9244;50.828;4.718;2024-01-30T12:57:23;11.80;99.90
18240;DHT22;9244;50.828;4.718;2024-01-30T12:59:51;11.50;99.90
18240;DHT22;9244;50.828;4.718;2024-01-30T13:02:16;11.50;99.90
18240;DHT22;9244;50.828;4.718;2024-01-30T13:04:43;11.50;99.90
18240;DHT22;9244;50.828;4.718;2024-01-30T13:07:09;11.50;99.90
18240;DHT22;9244;50.828;4.718;2024-01-30T13:09:34;11.30;99.90
18240;DHT22;9244;50.828;4.718;2024-01-30T13:12:00;11.40;99.90
18240;DHT22;9244;50.828;4.718;2024-01-30T13:14:26;11.60;99.90
18240;DHT22;9244;50.828;4.718;2024-01-30T13:16:52;11.30;99.90
18240;DHT22;9244;50.828;4.718;2024-01-30T13:19:18;11.10;99.90
18240;DHT22;9244;50.828;4.718;2024-01-30T13:21:43;10.90;99.90
18240;DHT22;9244;50.828;4.718;2024-01-30T13:24:11;11.10;99.90
18240;DHT22;9244;50.828;4.718;2024-01-30T13:26:37;11.50;99.90
18240;DHT22;9244;50.828;4.718;2024-01-30T13:29:03;11.70;99.90
18240;DHT22;9244;50.828;4.718;2024-01-30T13:31:29;12.40;99.90
18240;DHT22;9244;50.828;4.718;2024-01-30T13:33:55;12.60;99.90
18240;DHT22;9244;50.828;4.718;2024-01-30T13:36:23;12.60;99.90
18240;DHT22;9244;50.828;4.718;2024-01-30T13:38:48;12.30;99.90
18240;DHT22;9244;50.828;4.718;2024-01-30T13:41:14;12.10;99.90
18240;DHT22;9244;50.828;4.718;2024-01-30T13:43:40;11.80;99.90
18240;DHT22;9244;50.828;4.718;2024-01-30T13:46:06;11.60;99.90
18240;DHT22;9244;50.828;4.718;2024-01-30T13:48:31;11.50;99.90
18240;DHT22;9244;50.828;4.718;2024-01-30T13:50:57;11.50;99.90
18240;DHT22;9244;50.828;4.718;2024-01-30T13:53:25;11.60;99.90
18240;DHT22;9244;50.828;4.718;2024-01-30T13:55:51;12.40;99.90
18240;DHT22;9244;50.828;4.718;2024-01-30T13:58:16;12.50;99.90
18240;DHT22;9244;50.828;4.718;2024-01-30T14:00:42;12.20;99.90
18240;DHT22;9244;50.828;4.718;2024-01-30T14:03:08;11.90;99.90
18240;DHT22;9244;50.828;4.718;2024-01-30T14:05:33;11.60;99.90
18240;DHT22;9244;50.828;4.718;2024-01-30T14:08:00;11.40;99.90
18240;DHT22;9244;50.828;4.718;2024-01-30T14:10:25;11.30;99.90
18240;DHT22;9244;50.828;4.718;2024-01-30T14:12:51;11.10;99.90
18240;DHT22;9244;50.828;4.718;2024-01-30T14:15:17;11.20;99.90
18240;DHT22;9244;50.828;4.718;2024-01-30T14:17:46;11.20;99.90
18240;DHT22;9244;50.828;4.718;2024-01-30T14:20:14;11.10;99.90
18240;DHT22;9244;50.828;4.718;2024-01-30T14:22:40;11.00;99.90
18240;DHT22;9244;50.828;4.718;2024-01-30T14:25:08;10.90;99.90
18240;DHT22;9244;50.828;4.718;2024-01-30T14:27:37;10.90;99.90
18240;DHT22;9244;50.828;4.718;2024-01-30T14:30:03;10.90;99.90
18240;DHT22;9244;50.828;4.718;2024-01-30T14:32:30;11.00;99.90
18240;DHT22;9244;50.828;4.718;2024-01-30T14:34:56;11.00;99.90
18240;DHT22;9244;50.828;4.718;2024-01-30T14:37:22;11.10;99.90
18240;DHT22;9244;50.828;4.718;2024-01-30T14:39:50;11.00;99.90
18240;DHT22;9244;50.828;4.718;2024-01-30T14:42:16;10.90;99.90
18240;DHT22;9244;50.828;4.718;2024-01-30T14:44:44;10.90;99.90
18240;DHT22;9244;50.828;4.718;2024-01-30T14:47:09;10.80;99.90
18240;DHT22;9244;50.828;4.718;2024-01-30T14:49:35;10.90;99.90
18240;DHT22;9244;50.828;4.718;2024-01-30T14:52:01;11.00;99.90
18240;DHT22;9244;50.828;4.718;2024-01-30T14:54:29;11.20;99.90
18240;DHT22;9244;50.828;4.718;2024-01-30T14:56:58;11.80;99.90
18240;DHT22;9244;50.828;4.718;2024-01-30T14:59:25;11.70;99.90
18240;DHT22;9244;50.828;4.718;2024-01-30T15:01:50;11.40;99.90
18240;DHT22;9244;50.828;4.718;2024-01-30T15:04:18;11.20;99.90
18240;DHT22;9244;50.828;4.718;2024-01-30T15:06:46;11.00;99.90
18240;DHT22;9244;50.828;4.718;2024-01-30T15:09:14;10.90;99.90
18240;DHT22;9244;50.828;4.718;2024-01-30T15:11:41;10.80;99.90
18240;DHT22;9244;50.828;4.718;2024-01-30T15:14:06;10.80;99.90
18240;DHT22;9244;50.828;4.718;2024-01-30T15:16:36;10.70;99.90
18240;DHT22;9244;50.828;4.718;2024-01-30T15:19:02;10.60;99.90
18240;DHT22;9244;50.828;4.718;2024-01-30T15:21:28;10.60;99.90
18240;DHT22;9244;50.828;4.718;2024-01-30T15:23:54;10.60;99.90
18240;DHT22;9244;50.828;4.718;2024-01-30T15:26:25;10.60;99.90
18240;DHT22;9244;50.828;4.718;2024-01-30T15:28:51;10.40;99.90
18240;DHT22;9244;50.828;4.718;2024-01-30T15:31:17;10.40;99.90
18240;DHT22;9244;50.828;4.718;2024-01-30T15:33:43;10.40;99.90
18240;DHT22;9244;50.828;4.718;2024-01-30T15:36:11;10.30;99.90
18240;DHT22;9244;50.828;4.718;2024-01-30T15:38:38;10.30;99.90
18240;DHT22;9244;50.828;4.718;2024-01-30T15:41:07;10.20;99.90
18240;DHT22;9244;50.828;4.718;2024-01-30T15:43:34;10.10;99.90